Accueil
METAR-TAF:

METAR-TAF

Aéroports :

Ingolstadt, Allemagne

latitude: 48-43N, longitude: 011-32E, altitude: 367 m

Observation

Le bulletin a été fait il y a 1 heure et 2 minutes, à 14:20 UTC
Vent 5 kt de est/nord-est
Température 25°C
Humidité 24%
Pression 1015 hPa
Visibilité: 9000 m

METAR: ETSI 021420Z AUTO 07005KT 9000 // ////// 25/03 Q1015 ///

Heure: 17:22 (15:22 UTC)

Prévision

Le bulletin a été fait il y a 5 heures et 7 minutes, à 10:15 UTC
Prévision valable du 02 à 11 UTC au 02 à 20 UTC
Vent 7 kt de est/nord-est
Visibilité: 1300 m
Quelques nuages à une hauteur de 27000 ft

TAF: ETSI 021015Z 0211/0220 07007KT 9999 NSW FEW270 CANCEL 1300

Observations et prévisions météorologiques de plus de 4000 aéroports (messages METAR et TAF).

Les stations disponibles sont représentées par des disques jaunes et rouges sur la carte.

Passer la souris dessus pour voir le nom de la station.

Cliquer dessus pour voir les observations et prévisions météorologiques.

Pour changer de carte: cliquez sur les boutons verts avec une croix noire pour zoomer, sur le bouton vert avec un tiret pour effectuer un zoom arrière, ou sur les flèches vertes pour les cartes adjacentes.


METAR-TAF: